RZO125 LFPG-LPLA
Flight info
| Callsign | RZO125 |
|---|---|
| Flight time | N/A |
| Altitude | 35000 |
| Route | LGL6K LGL UT190 GODIX UN872 DIDAK DCT AKEMO DCT RIVAK/M078F350 DCT SIVIR DCT PASAS DCT 42N020W DCT ANAVA H122 DOLER DCT |
| Aircraft | A333/H-SDE3GHIJ2J3J5M1RVWXY/LB2D1 |
Departure
| Time | 2026-04-30 21:42 |
|---|---|
| Airport | Charles de Gaulle International Airport (LFPG) |
Arrival
| Time | N/A |
|---|---|
| Airport | Lajes Airport (LPLA) |
| Time | Latitude | Longitude | Altitude | Speed | Heading |
|---|---|---|---|---|---|
| 2026-04-30 21:12 | 49.01727 | 2.54193 | 370 ft | 0 kts | 229° |
| 2026-04-30 21:32 | 49.01734 | 2.54202 | 370 ft | 2 kts | 198° |
| 2026-04-30 21:32 | 49.01747 | 2.54207 | 370 ft | 2 kts | 197° |
| 2026-04-30 21:32 | 49.01761 | 2.54215 | 370 ft | 2 kts | 202° |
| 2026-04-30 21:33 | 49.01775 | 2.54223 | 370 ft | 2 kts | 201° |
| 2026-04-30 21:33 | 49.01803 | 2.54239 | 370 ft | 2 kts | 201° |
| 2026-04-30 21:33 | 49.01814 | 2.54246 | 370 ft | 1 kts | 240° |
| 2026-04-30 21:34 | 49.01817 | 2.54257 | 370 ft | 1 kts | 267° |
| 2026-04-30 21:34 | 49.01817 | 2.54261 | 370 ft | 0 kts | 266° |
| 2026-04-30 21:37 | 49.01839 | 2.54142 | 370 ft | 11 kts | 322° |
| 2026-04-30 21:37 | 49.01890 | 2.54061 | 371 ft | 11 kts | 287° |
| 2026-04-30 21:37 | 49.01887 | 2.53923 | 369 ft | 14 kts | 265° |
| 2026-04-30 21:37 | 49.01878 | 2.53768 | 369 ft | 15 kts | 265° |
| 2026-04-30 21:38 | 49.01869 | 2.53603 | 369 ft | 17 kts | 265° |
| 2026-04-30 21:38 | 49.01858 | 2.53404 | 369 ft | 19 kts | 265° |
| 2026-04-30 21:38 | 49.01848 | 2.53210 | 371 ft | 18 kts | 266° |
| 2026-04-30 21:38 | 49.01836 | 2.52993 | 370 ft | 22 kts | 265° |
| 2026-04-30 21:39 | 49.01824 | 2.52765 | 373 ft | 21 kts | 265° |
| 2026-04-30 21:39 | 49.01810 | 2.52523 | 376 ft | 22 kts | 265° |
| 2026-04-30 21:39 | 49.01835 | 2.52371 | 377 ft | 9 kts | 327° |
| 2026-04-30 21:39 | 49.01885 | 2.52294 | 377 ft | 13 kts | 285° |
| 2026-04-30 21:40 | 49.01879 | 2.52120 | 374 ft | 19 kts | 264° |
| 2026-04-30 21:40 | 49.01864 | 2.51886 | 374 ft | 24 kts | 266° |
| 2026-04-30 21:40 | 49.01851 | 2.51603 | 369 ft | 29 kts | 266° |
| 2026-04-30 21:40 | 49.01855 | 2.51324 | 367 ft | 21 kts | 300° |
| 2026-04-30 21:41 | 49.01979 | 2.51272 | 368 ft | 19 kts | 29° |
| 2026-04-30 21:41 | 49.02060 | 2.51407 | 372 ft | 16 kts | 65° |
| 2026-04-30 21:41 | 49.02071 | 2.51476 | 372 ft | 0 kts | 86° |
| 2026-04-30 21:42 | 49.02090 | 2.51832 | 375 ft | 66 kts | 85° |
| 2026-04-30 21:42 | 49.02145 | 2.52846 | 380 ft | 125 kts | 85° |
| 2026-04-30 21:42 | 49.02226 | 2.54432 | 498 ft | 163 kts | 86° |
| 2026-04-30 21:42 | 49.02298 | 2.56123 | 1096 ft | 163 kts | 89° |
| 2026-04-30 21:43 | 49.02372 | 2.57873 | 1790 ft | 167 kts | 91° |
| 2026-04-30 21:43 | 49.02451 | 2.59612 | 2510 ft | 167 kts | 86° |
| 2026-04-30 21:43 | 49.02571 | 2.61321 | 3208 ft | 165 kts | 89° |
| 2026-04-30 21:43 | 49.02671 | 2.63018 | 3901 ft | 161 kts | 88° |
| 2026-04-30 21:44 | 49.02767 | 2.64669 | 4546 ft | 157 kts | 88° |
| 2026-04-30 21:44 | 49.02862 | 2.66371 | 4928 ft | 169 kts | 88° |
| 2026-04-30 21:44 | 49.03035 | 2.68183 | 5150 ft | 182 kts | 69° |
| 2026-04-30 21:44 | 49.03914 | 2.69676 | 5313 ft | 202 kts | 29° |
| 2026-04-30 21:45 | 49.05348 | 2.70089 | 5498 ft | 227 kts | 352° |
| 2026-04-30 21:45 | 49.06823 | 2.69123 | 5829 ft | 244 kts | 320° |
| 2026-04-30 21:45 | 49.07831 | 2.66980 | 6187 ft | 259 kts | 289° |
| 2026-04-30 21:45 | 49.08026 | 2.64207 | 6575 ft | 272 kts | 260° |
| 2026-04-30 21:46 | 49.07322 | 2.61444 | 6951 ft | 286 kts | 238° |
| 2026-04-30 21:46 | 49.06329 | 2.58772 | 7311 ft | 304 kts | 247° |
| 2026-04-30 21:46 | 49.05889 | 2.55477 | 7633 ft | 324 kts | 265° |
| 2026-04-30 21:46 | 49.05765 | 2.51992 | 7949 ft | 343 kts | 267° |
| 2026-04-30 21:47 | 49.05696 | 2.48265 | 8414 ft | 356 kts | 268° |
| 2026-04-30 21:47 | 49.05637 | 2.44505 | 9208 ft | 356 kts | 268° |
| 2026-04-30 21:47 | 49.05590 | 2.40747 | 10043 ft | 355 kts | 266° |
| 2026-04-30 21:47 | 49.05157 | 2.37065 | 10654 ft | 359 kts | 257° |
| 2026-04-30 21:48 | 49.04659 | 2.33327 | 11339 ft | 364 kts | 256° |
| 2026-04-30 21:48 | 49.04158 | 2.29589 | 12006 ft | 367 kts | 257° |
| 2026-04-30 21:48 | 49.03646 | 2.25763 | 12611 ft | 372 kts | 256° |
| 2026-04-30 21:48 | 49.03120 | 2.21857 | 13224 ft | 376 kts | 256° |
| 2026-04-30 21:49 | 49.02596 | 2.17961 | 13837 ft | 380 kts | 256° |
| 2026-04-30 21:49 | 49.02068 | 2.14055 | 14420 ft | 383 kts | 256° |
| 2026-04-30 21:49 | 49.01526 | 2.10051 | 14989 ft | 388 kts | 256° |
| 2026-04-30 21:49 | 49.00975 | 2.06005 | 15585 ft | 392 kts | 256° |
| 2026-04-30 21:50 | 49.00426 | 2.01970 | 16128 ft | 396 kts | 256° |
| 2026-04-30 21:50 | 48.99867 | 1.97878 | 16668 ft | 400 kts | 256° |
| 2026-04-30 21:50 | 48.99298 | 1.93725 | 17218 ft | 403 kts | 256° |
| 2026-04-30 21:50 | 48.98720 | 1.89521 | 17783 ft | 406 kts | 256° |
| 2026-04-30 21:51 | 48.98146 | 1.85351 | 18307 ft | 409 kts | 256° |
| 2026-04-30 21:51 | 48.97560 | 1.81114 | 18853 ft | 412 kts | 256° |
| 2026-04-30 21:51 | 48.96970 | 1.76853 | 19371 ft | 415 kts | 256° |
| 2026-04-30 21:51 | 48.96373 | 1.72559 | 19890 ft | 418 kts | 256° |
| 2026-04-30 21:52 | 48.95773 | 1.68262 | 20355 ft | 421 kts | 256° |
| 2026-04-30 21:52 | 48.95164 | 1.63900 | 20816 ft | 424 kts | 256° |
| 2026-04-30 21:52 | 48.94543 | 1.59468 | 21303 ft | 427 kts | 256° |
| 2026-04-30 21:52 | 48.93928 | 1.55098 | 21764 ft | 429 kts | 256° |
| 2026-04-30 21:53 | 48.93306 | 1.50687 | 22248 ft | 431 kts | 255° |
| 2026-04-30 21:53 | 48.92669 | 1.46195 | 22704 ft | 433 kts | 255° |
| 2026-04-30 21:53 | 48.92040 | 1.41761 | 23151 ft | 435 kts | 255° |
| 2026-04-30 21:53 | 48.91399 | 1.37244 | 23559 ft | 438 kts | 255° |
| 2026-04-30 21:54 | 48.90749 | 1.32701 | 23996 ft | 440 kts | 255° |
| 2026-04-30 21:54 | 48.90102 | 1.28183 | 24436 ft | 442 kts | 255° |
| 2026-04-30 21:54 | 48.89446 | 1.23615 | 24831 ft | 445 kts | 255° |
| 2026-04-30 21:54 | 48.88794 | 1.19085 | 25204 ft | 448 kts | 255° |
| 2026-04-30 21:55 | 48.88123 | 1.14443 | 25611 ft | 450 kts | 255° |
| 2026-04-30 21:55 | 48.87452 | 1.09813 | 26043 ft | 452 kts | 255° |
| 2026-04-30 21:55 | 48.86774 | 1.05145 | 26451 ft | 454 kts | 255° |
| 2026-04-30 21:55 | 48.86092 | 1.00462 | 26818 ft | 457 kts | 255° |
| 2026-04-30 21:56 | 48.85407 | 0.95788 | 27217 ft | 459 kts | 255° |
| 2026-04-30 21:56 | 48.84709 | 0.91023 | 27624 ft | 461 kts | 255° |
| 2026-04-30 21:56 | 48.84015 | 0.86314 | 28010 ft | 463 kts | 255° |
| 2026-04-30 21:56 | 48.83316 | 0.81576 | 28361 ft | 466 kts | 255° |
| 2026-04-30 21:57 | 48.82603 | 0.76753 | 28717 ft | 468 kts | 255° |
| 2026-04-30 21:57 | 48.81882 | 0.71903 | 29120 ft | 470 kts | 256° |
| 2026-04-30 21:57 | 48.81151 | 0.67000 | 29476 ft | 472 kts | 256° |
| 2026-04-30 21:57 | 48.80423 | 0.62123 | 29793 ft | 475 kts | 256° |
| 2026-04-30 21:58 | 48.79641 | 0.57256 | 30144 ft | 476 kts | 251° |
| 2026-04-30 21:58 | 48.78220 | 0.52760 | 30403 ft | 475 kts | 235° |
| 2026-04-30 21:58 | 48.76067 | 0.48986 | 30684 ft | 473 kts | 221° |
| 2026-04-30 21:58 | 48.73638 | 0.45712 | 31022 ft | 474 kts | 220° |
| 2026-04-30 21:59 | 48.71183 | 0.42397 | 31300 ft | 475 kts | 220° |
| 2026-04-30 21:59 | 48.68695 | 0.39046 | 31535 ft | 477 kts | 220° |
| 2026-04-30 21:59 | 48.66216 | 0.35711 | 31792 ft | 479 kts | 220° |
| 2026-04-30 22:00 | 48.61267 | 0.29065 | 32285 ft | 480 kts | 220° |
| 2026-04-30 22:00 | 48.56273 | 0.22379 | 32666 ft | 482 kts | 220° |
| 2026-04-30 22:00 | 48.53788 | 0.19061 | 32805 ft | 483 kts | 220° |
| 2026-04-30 22:01 | 48.51260 | 0.15690 | 32952 ft | 484 kts | 220° |
| 2026-04-30 22:01 | 48.48731 | 0.12319 | 33093 ft | 485 kts | 220° |
| 2026-04-30 22:01 | 48.46222 | 0.08982 | 33231 ft | 486 kts | 220° |
| 2026-04-30 22:01 | 48.43679 | 0.05604 | 33368 ft | 486 kts | 220° |
| 2026-04-30 22:02 | 48.41162 | 0.02263 | 33502 ft | 487 kts | 220° |
| 2026-04-30 22:02 | 48.38636 | -0.01084 | 33636 ft | 487 kts | 220° |
| 2026-04-30 22:02 | 48.36170 | -0.04519 | 33758 ft | 487 kts | 226° |
| 2026-04-30 22:02 | 48.34106 | -0.08557 | 33891 ft | 488 kts | 232° |
| 2026-04-30 22:03 | 48.32091 | -0.12645 | 34033 ft | 487 kts | 232° |
| 2026-04-30 22:03 | 48.30096 | -0.16679 | 34384 ft | 482 kts | 232° |
| 2026-04-30 22:03 | 48.28088 | -0.20730 | 34632 ft | 481 kts | 232° |
| 2026-04-30 22:03 | 48.26107 | -0.24757 | 34723 ft | 482 kts | 234° |
| 2026-04-30 22:04 | 48.24397 | -0.29055 | 34824 ft | 483 kts | 239° |
| 2026-04-30 22:04 | 48.22715 | -0.33387 | 34938 ft | 482 kts | 239° |
| 2026-04-30 22:04 | 48.19346 | -0.42054 | 35141 ft | 483 kts | 239° |
| 2026-04-30 22:05 | 48.17669 | -0.46356 | 35129 ft | 485 kts | 239° |
| 2026-04-30 22:05 | 48.14261 | -0.55077 | 35147 ft | 488 kts | 239° |
| 2026-04-30 22:06 | 48.10841 | -0.63799 | 35128 ft | 488 kts | 239° |
| 2026-04-30 22:06 | 48.05688 | -0.76894 | 35133 ft | 486 kts | 238° |
| 2026-04-30 22:07 | 48.02256 | -0.85574 | 35128 ft | 486 kts | 238° |
| 2026-04-30 22:07 | 47.98838 | -0.94194 | 35140 ft | 486 kts | 238° |
| 2026-04-30 22:08 | 47.95383 | -1.02878 | 35119 ft | 486 kts | 238° |
| 2026-04-30 22:08 | 47.91938 | -1.11511 | 35131 ft | 487 kts | 238° |
| 2026-04-30 22:09 | 47.88487 | -1.20131 | 35116 ft | 486 kts | 238° |
| 2026-04-30 22:09 | 47.85027 | -1.28744 | 35128 ft | 488 kts | 238° |
| 2026-04-30 22:10 | 47.81546 | -1.37381 | 35120 ft | 488 kts | 239° |
| 2026-04-30 22:10 | 47.78048 | -1.46033 | 35113 ft | 490 kts | 239° |
| 2026-04-30 22:11 | 47.72799 | -1.58973 | 35129 ft | 489 kts | 239° |
| 2026-04-30 22:12 | 47.69307 | -1.67550 | 35125 ft | 486 kts | 238° |
| 2026-04-30 22:12 | 47.65797 | -1.76128 | 35120 ft | 488 kts | 238° |
| 2026-04-30 22:13 | 47.62290 | -1.84678 | 35123 ft | 489 kts | 238° |
| 2026-04-30 22:13 | 47.58767 | -1.93244 | 35152 ft | 488 kts | 239° |
| 2026-04-30 22:14 | 47.55255 | -2.01754 | 35126 ft | 484 kts | 239° |
| 2026-04-30 22:14 | 47.51752 | -2.10217 | 35103 ft | 482 kts | 239° |
| 2026-04-30 22:15 | 47.48272 | -2.18600 | 35141 ft | 482 kts | 239° |
| 2026-04-30 22:15 | 47.44753 | -2.27050 | 35128 ft | 483 kts | 239° |
| 2026-04-30 22:16 | 47.41246 | -2.35443 | 35131 ft | 485 kts | 239° |
| 2026-04-30 22:17 | 47.34174 | -2.52293 | 35122 ft | 481 kts | 239° |
| 2026-04-30 22:17 | 47.28918 | -2.64749 | 35126 ft | 479 kts | 239° |
| 2026-04-30 22:18 | 47.23649 | -2.77176 | 35129 ft | 478 kts | 239° |
| 2026-04-30 22:19 | 47.18388 | -2.89532 | 35133 ft | 478 kts | 239° |
| 2026-04-30 22:20 | 47.13423 | -3.02106 | 35110 ft | 476 kts | 253° |
| 2026-04-30 22:20 | 47.10662 | -3.16052 | 35122 ft | 475 kts | 254° |
| 2026-04-30 22:21 | 47.08781 | -3.25300 | 35139 ft | 473 kts | 254° |
| 2026-04-30 22:21 | 47.06894 | -3.34520 | 35124 ft | 473 kts | 254° |
| 2026-04-30 22:22 | 47.05009 | -3.43684 | 35129 ft | 474 kts | 254° |
| 2026-04-30 22:22 | 47.03107 | -3.52900 | 35137 ft | 473 kts | 254° |
| 2026-04-30 22:23 | 47.01190 | -3.62136 | 35129 ft | 473 kts | 254° |
| 2026-04-30 22:23 | 46.99283 | -3.71285 | 35132 ft | 472 kts | 253° |
| 2026-04-30 22:24 | 46.97375 | -3.80392 | 35134 ft | 471 kts | 253° |
| 2026-04-30 22:24 | 46.95444 | -3.89573 | 35133 ft | 471 kts | 253° |
| 2026-04-30 22:25 | 46.93517 | -3.98692 | 35125 ft | 471 kts | 253° |
| 2026-04-30 22:25 | 46.91588 | -4.07782 | 35141 ft | 471 kts | 253° |
| 2026-04-30 22:26 | 46.88664 | -4.21482 | 35135 ft | 470 kts | 253° |
| 2026-04-30 22:27 | 46.86724 | -4.30523 | 35131 ft | 471 kts | 252° |
| 2026-04-30 22:27 | 46.83778 | -4.44177 | 35122 ft | 470 kts | 252° |
| 2026-04-30 22:28 | 46.80833 | -4.57731 | 35121 ft | 468 kts | 252° |
| 2026-04-30 22:29 | 46.76887 | -4.75763 | 35144 ft | 468 kts | 251° |
| 2026-04-30 22:31 | 46.69921 | -5.07217 | 35139 ft | 468 kts | 251° |
| 2026-04-30 22:32 | 46.64892 | -5.29634 | 35140 ft | 466 kts | 251° |
| 2026-04-30 22:33 | 46.59838 | -5.51929 | 35138 ft | 466 kts | 250° |
| 2026-04-30 22:35 | 46.54748 | -5.74152 | 35140 ft | 465 kts | 250° |
| 2026-04-30 22:36 | 46.49612 | -5.96346 | 35146 ft | 465 kts | 249° |
| 2026-04-30 22:37 | 46.45474 | -6.14065 | 35143 ft | 466 kts | 249° |
| 2026-04-30 22:38 | 46.41320 | -6.31704 | 35130 ft | 465 kts | 249° |
| 2026-04-30 22:39 | 46.38172 | -6.44982 | 35131 ft | 465 kts | 249° |
| 2026-04-30 22:40 | 46.31868 | -6.71329 | 35131 ft | 464 kts | 248° |
| 2026-04-30 22:41 | 46.26573 | -6.93223 | 35129 ft | 464 kts | 248° |
| 2026-04-30 22:43 | 46.20148 | -7.19503 | 35127 ft | 464 kts | 248° |
| 2026-04-30 22:44 | 46.15848 | -7.36920 | 35127 ft | 463 kts | 248° |
| 2026-04-30 22:45 | 46.09330 | -7.63069 | 35127 ft | 464 kts | 247° |
| 2026-04-30 22:47 | 46.02767 | -7.89102 | 35125 ft | 464 kts | 246° |
| 2026-04-30 22:48 | 45.99954 | -8.07055 | 35158 ft | 475 kts | 267° |
| 2026-04-30 22:49 | 46.00061 | -8.35426 | 35124 ft | 474 kts | 266° |
| 2026-04-30 22:51 | 46.00032 | -8.63742 | 35124 ft | 475 kts | 265° |
| 2026-04-30 22:52 | 45.99401 | -8.77811 | 35116 ft | 463 kts | 249° |
| 2026-04-30 22:53 | 45.95628 | -8.95425 | 35130 ft | 462 kts | 248° |
| 2026-04-30 22:53 | 45.92800 | -9.08545 | 35129 ft | 462 kts | 249° |
| 2026-04-30 22:55 | 45.88018 | -9.30535 | 35123 ft | 464 kts | 249° |
| 2026-04-30 22:56 | 45.84161 | -9.48108 | 35123 ft | 463 kts | 249° |
| 2026-04-30 22:57 | 45.79315 | -9.69978 | 35121 ft | 462 kts | 248° |
| 2026-04-30 22:58 | 45.75396 | -9.87505 | 35120 ft | 463 kts | 248° |
| 2026-04-30 22:59 | 45.69464 | -10.13759 | 35118 ft | 465 kts | 248° |